Time;durP1;ratioP1;P1;durP2;ratioP2;P2;SDS_P1;SDS_P2;PMS_P1;PMS_P2;Temp;Humidity;BMP_temperature;BMP_pressure;BME280_temperature;BME280_humidity;BME280_pressure;Samples;Min_cycle;Max_cycle;Signal;HPM_P1;HPM_P2
2022/07/10 00:00:30;;;;;;;1.98;0.88;;;;;;;16.74;58.71;99591.34;5029145;28;20159;-80
2022/07/10 00:02:56;;;;;;;6.22;1.67;;;;;;;16.71;58.38;99600.00;5029461;28;20061;-80
2022/07/10 00:05:23;;;;;;;3.53;1.10;;;;;;;16.74;59.38;99588.66;5028640;28;20059;-80
2022/07/10 00:07:49;;;;;;;3.47;1.40;;;;;;;16.89;58.33;99604.84;5002736;28;20045;-80
2022/07/10 00:10:16;;;;;;;3.63;1.33;;;;;;;16.73;58.59;99600.53;5028399;28;20029;-80
2022/07/10 00:12:41;;;;;;;2.67;0.98;;;;;;;16.69;58.54;99583.25;5030386;28;20100;-80
2022/07/10 00:15:07;;;;;;;5.55;1.70;;;;;;;16.69;59.53;99602.13;5045603;28;20117;-80
2022/07/10 00:17:33;;;;;;;2.75;1.10;;;;;;;16.68;58.97;99584.38;5026254;28;20033;-80
2022/07/10 00:19:58;;;;;;;5.97;1.38;;;;;;;16.75;58.67;99593.81;5024681;28;20136;-80
2022/07/10 00:22:24;;;;;;;5.38;1.83;;;;;;;16.63;59.38;99595.94;5016084;28;20057;-80
2022/07/10 00:24:52;;;;;;;4.75;1.58;;;;;;;16.53;58.96;99593.25;5028563;28;20099;-80
2022/07/10 00:27:18;;;;;;;4.88;1.40;;;;;;;16.62;58.68;99591.63;5011168;28;20065;-80
2022/07/10 00:29:44;;;;;;;4.90;1.58;;;;;;;16.67;58.87;99591.63;5012024;28;20091;-81
2022/07/10 00:32:10;;;;;;;4.20;1.52;;;;;;;16.58;59.02;99597.84;5030520;28;20028;-80
2022/07/10 00:34:36;;;;;;;6.18;1.38;;;;;;;16.59;58.96;99602.97;5020052;28;20041;-79
2022/07/10 00:37:03;;;;;;;4.30;1.13;;;;;;;16.56;59.18;99592.72;5009312;28;20040;-80
2022/07/10 00:39:28;;;;;;;4.47;1.60;;;;;;;16.61;58.93;99592.72;5027873;28;20025;-80
2022/07/10 00:41:53;;;;;;;6.05;1.15;;;;;;;16.58;59.25;99592.47;5010700;28;20734;-80
2022/07/10 00:44:19;;;;;;;2.83;1.05;;;;;;;16.26;59.43;99582.69;5025162;28;20449;-80
2022/07/10 00:46:44;;;;;;;4.20;1.52;;;;;;;16.17;60.45;99581.59;5009541;28;20026;-80
2022/07/10 00:49:09;;;;;;;5.05;1.35;;;;;;;16.40;60.01;99586.47;5024812;28;20041;-80
2022/07/10 00:51:37;;;;;;;5.00;2.55;;;;;;;16.06;60.51;99581.81;5023825;28;20049;-80
2022/07/10 00:54:03;;;;;;;2.08;1.05;;;;;;;16.24;59.54;99560.59;5023360;28;20030;-80
2022/07/10 00:56:28;;;;;;;4.18;1.58;;;;;;;16.39;59.13;99557.09;5025079;28;20035;-80
2022/07/10 00:58:54;;;;;;;3.42;1.40;;;;;;;16.57;58.61;99578.16;5005254;28;20048;-80
2022/07/10 01:01:22;;;;;;;2.67;1.25;;;;;;;16.54;58.99;99569.78;5027148;28;20048;-80
2022/07/10 01:03:47;;;;;;;5.38;1.00;;;;;;;16.54;59.06;99573.31;5025872;28;20112;-81
2022/07/10 01:06:14;;;;;;;4.45;1.65;;;;;;;16.39;59.23;99578.66;5027494;28;20036;-80
2022/07/10 01:08:40;;;;;;;3.15;1.20;;;;;;;16.48;58.96;99569.78;5008754;28;20037;-80
2022/07/10 01:11:05;;;;;;;3.72;1.30;;;;;;;16.40;58.73;99574.91;5024840;28;20519;-81
2022/07/10 01:13:32;;;;;;;4.32;1.67;;;;;;;16.25;59.18;99558.72;5027508;28;20033;-81
2022/07/10 01:15:57;;;;;;;5.10;1.30;;;;;;;16.25;59.50;99569.50;5027989;28;20467;-81
2022/07/10 01:18:25;;;;;;;4.25;1.30;;;;;;;16.30;59.42;99564.09;5026415;28;20078;-80
2022/07/10 01:20:56;;;;;;;6.57;1.52;;;;;;;16.32;59.73;99584.31;5025918;28;20032;-80
2022/07/10 01:23:22;;;;;;;4.97;1.40;;;;;;;16.13;59.94;99563.53;5025918;28;20028;-80
2022/07/10 01:25:48;;;;;;;2.58;1.20;;;;;;;16.03;59.97;99556.22;5027026;28;20065;-80
2022/07/10 01:28:16;;;;;;;4.03;1.20;;;;;;;16.02;60.10;99573.47;4995283;28;20104;-80
2022/07/10 01:30:41;;;;;;;6.82;1.58;;;;;;;16.05;60.16;99550.59;5024907;28;20052;-80
2022/07/10 01:33:07;;;;;;;4.43;1.60;;;;;;;16.06;59.72;99544.94;5011277;28;20022;-80
2022/07/10 01:35:32;;;;;;;5.20;1.88;;;;;;;16.14;59.83;99562.47;5025637;28;20124;-80
2022/07/10 01:37:58;;;;;;;9.38;2.00;;;;;;;16.15;60.10;99564.88;5022799;28;20033;-80
2022/07/10 01:40:23;;;;;;;4.10;1.25;;;;;;;16.05;59.80;99548.72;5024221;28;20029;-80
2022/07/10 01:42:49;;;;;;;7.75;1.27;;;;;;;16.07;60.07;99570.81;5024073;28;20034;-80
2022/07/10 01:45:16;;;;;;;3.25;1.48;;;;;;;16.12;59.89;99576.19;5022798;28;20029;-80
2022/07/10 01:47:45;;;;;;;7.30;2.08;;;;;;;15.85;60.54;99556.75;5028641;28;20030;-80
2022/07/10 01:50:10;;;;;;;9.30;2.25;;;;;;;15.81;60.52;99544.91;5008614;28;20090;-80
2022/07/10 01:52:36;;;;;;;5.15;1.60;;;;;;;15.74;60.82;99555.09;5015288;28;20663;-80
2022/07/10 01:55:03;;;;;;;3.95;0.90;;;;;;;15.85;60.98;99562.13;5032064;28;20052;-80
2022/07/10 01:57:28;;;;;;;7.55;1.25;;;;;;;15.99;59.94;99549.75;5029543;28;20038;-80
2022/07/10 01:59:53;;;;;;;4.88;1.25;;;;;;;15.77;60.47;99521.47;5028125;28;20040;-80
2022/07/10 02:02:19;;;;;;;5.57;1.52;;;;;;;15.93;60.27;99550.84;5006548;28;20036;-80
2022/07/10 02:04:44;;;;;;;4.35;1.33;;;;;;;15.82;60.38;99543.00;5012842;28;20032;-80
2022/07/10 02:07:18;;;;;;;6.05;1.10;;;;;;;15.92;60.54;99551.13;5013142;28;20116;-80
2022/07/10 02:09:45;;;;;;;4.43;1.33;;;;;;;15.84;60.23;99541.66;5013269;28;20037;-80
2022/07/10 02:12:13;;;;;;;10.70;2.67;;;;;;;15.60;61.22;99551.25;5009844;28;20152;-80
2022/07/10 02:14:39;;;;;;;6.13;1.52;;;;;;;15.66;60.71;99529.50;5030543;28;20437;-80
2022/07/10 02:17:06;;;;;;;1.92;1.23;;;;;;;15.73;60.28;99540.81;5029260;28;20064;-80
2022/07/10 02:19:31;;;;;;;8.98;1.52;;;;;;;15.65;60.27;99535.16;5027194;28;20026;-80
2022/07/10 02:21:57;;;;;;;8.10;1.88;;;;;;;15.60;60.47;99553.97;5009913;28;20126;-80
2022/07/10 02:24:22;;;;;;;8.00;1.33;;;;;;;15.66;60.13;99547.53;5045444;28;20026;-80
2022/07/10 02:26:48;;;;;;;3.95;1.58;;;;;;;15.61;60.18;99531.38;5011673;28;20048;-80
2022/07/10 02:29:14;;;;;;;3.83;1.13;;;;;;;15.75;60.24;99549.44;5012251;28;20044;-80
2022/07/10 02:31:42;;;;;;;2.95;0.90;;;;;;;15.60;60.01;99530.56;5008699;28;20030;-79
2022/07/10 02:34:08;;;;;;;3.22;1.30;;;;;;;15.56;60.05;99540.22;5027219;28;20128;-80
2022/07/10 02:36:34;;;;;;;2.72;1.27;;;;;;;15.68;59.81;99540.00;5010243;28;20060;-80
2022/07/10 02:39:00;;;;;;;4.72;1.02;;;;;;;15.58;60.34;99539.97;5030239;28;20025;-80
2022/07/10 02:41:25;;;;;;;6.05;1.73;;;;;;;15.54;59.89;99542.38;5007756;28;20103;-80
2022/07/10 02:43:51;;;;;;;5.82;1.23;;;;;;;15.59;60.00;99546.97;5028726;28;20025;-80
2022/07/10 02:46:16;;;;;;;3.38;1.55;;;;;;;15.55;60.19;99538.59;5028248;28;20500;-80
2022/07/10 02:48:42;;;;;;;2.00;1.15;;;;;;;15.43;60.81;99546.09;5028678;28;20033;-80
2022/07/10 02:51:07;;;;;;;7.20;1.52;;;;;;;15.47;61.21;99533.75;5013312;28;20033;-80
2022/07/10 02:53:32;;;;;;;6.05;1.73;;;;;;;15.28;61.88;99520.97;5027136;28;20033;-80
2022/07/10 02:55:58;;;;;;;8.38;1.70;;;;;;;15.32;61.28;99509.44;5011305;28;20108;-80
2022/07/10 02:58:23;;;;;;;3.58;1.10;;;;;;;15.21;62.69;99521.22;5028793;28;20115;-80
2022/07/10 03:00:49;;;;;;;5.82;1.02;;;;;;;15.44;61.79;99520.00;5009125;28;20165;-80
2022/07/10 03:03:17;;;;;;;4.35;1.55;;;;;;;15.54;61.34;99506.59;5009312;28;20488;-80
2022/07/10 03:05:45;;;;;;;5.03;1.13;;;;;;;15.49;61.74;99509.25;5013277;28;20033;-80
2022/07/10 03:08:11;;;;;;;5.15;1.50;;;;;;;15.56;61.83;99517.88;5029075;28;20038;-80
2022/07/10 03:10:37;;;;;;;5.55;1.50;;;;;;;15.47;61.52;99506.00;5023306;28;20374;-80
2022/07/10 03:13:03;;;;;;;4.43;1.15;;;;;;;15.56;61.29;99490.97;5029185;28;20035;-80
2022/07/10 03:15:28;;;;;;;3.95;1.58;;;;;;;15.69;61.26;99501.25;5027645;28;21807;-80
2022/07/10 03:17:53;;;;;;;2.83;1.40;;;;;;;15.66;61.58;99502.56;4995314;28;20563;-80
2022/07/10 03:20:19;;;;;;;4.80;1.08;;;;;;;15.60;62.14;99494.75;5024947;28;20034;-80
2022/07/10 03:22:45;;;;;;;4.40;1.50;;;;;;;15.57;62.40;99498.00;5026964;28;20033;-80
2022/07/10 03:25:10;;;;;;;3.53;1.30;;;;;;;15.71;61.73;99509.84;5027025;28;20874;-80
2022/07/10 03:27:36;;;;;;;2.90;1.20;;;;;;;15.43;62.98;99511.13;5027265;28;20091;-79
2022/07/10 03:30:02;;;;;;;4.88;1.25;;;;;;;15.31;63.41;99507.00;4995990;28;20035;-79
2022/07/10 03:32:28;;;;;;;3.90;1.00;;;;;;;15.45;62.84;99511.66;5010604;28;20031;-80
2022/07/10 03:34:53;;;;;;;2.42;0.85;;;;;;;15.46;63.03;99521.38;5028213;28;20404;-80
2022/07/10 03:37:19;;;;;;;4.38;1.25;;;;;;;15.51;63.04;99515.16;5024328;28;20025;-80
2022/07/10 03:39:44;;;;;;;4.35;1.77;;;;;;;15.58;63.17;99513.88;5030088;28;20396;-80
2022/07/10 03:42:09;;;;;;;4.57;1.17;;;;;;;15.47;63.27;99503.31;5027256;28;20047;-80
2022/07/10 03:44:35;;;;;;;3.55;1.13;;;;;;;15.55;63.31;99506.31;5009727;28;20739;-80
2022/07/10 03:47:01;;;;;;;4.50;1.92;;;;;;;15.44;63.13;99493.09;5001785;28;20038;-80
2022/07/10 03:49:26;;;;;;;5.50;1.27;;;;;;;15.50;63.55;99503.63;5025534;28;20374;-80
2022/07/10 03:51:52;;;;;;;2.60;1.13;;;;;;;15.44;63.09;99499.28;5027136;28;20022;-80
2022/07/10 03:54:17;;;;;;;7.07;1.67;;;;;;;15.41;63.29;99501.66;5028751;28;20028;-79
2022/07/10 03:59:27;;;;;;;3.20;1.38;;;;;;;15.55;63.13;99500.16;5014223;28;20083;-80
2022/07/10 04:01:52;;;;;;;6.30;1.50;;;;;;;15.43;63.67;99492.28;5035225;28;20064;-80
2022/07/10 04:04:18;;;;;;;4.22;2.03;;;;;;;15.44;63.74;99498.50;5010607;28;20534;-80
2022/07/10 04:06:43;;;;;;;8.60;1.75;;;;;;;15.30;64.67;99500.00;5012415;28;20604;-80
2022/07/10 04:09:08;;;;;;;4.18;1.38;;;;;;;15.40;64.08;99498.16;5030011;28;20026;-80
2022/07/10 04:11:34;;;;;;;1.83;1.52;;;;;;;15.60;63.75;99500.13;5014064;28;20029;-80
2022/07/10 04:13:59;;;;;;;8.15;1.20;;;;;;;15.51;63.63;99499.84;5030588;28;20080;-79
2022/07/10 04:16:25;;;;;;;7.20;2.33;;;;;;;15.32;64.50;99508.63;5026284;28;20087;-80
2022/07/10 04:18:50;;;;;;;3.92;1.08;;;;;;;15.41;64.20;99494.41;5011313;28;20091;-80
2022/07/10 04:21:15;;;;;;;3.90;1.30;;;;;;;15.52;63.80;99497.97;5012829;28;20038;-80
2022/07/10 04:23:41;;;;;;;3.25;1.23;;;;;;;15.48;63.52;99491.50;5023793;28;20441;-80
2022/07/10 04:26:06;;;;;;;3.00;1.25;;;;;;;15.52;63.83;99500.66;5028663;28;20025;-80
2022/07/10 04:28:32;;;;;;;5.38;1.42;;;;;;;15.48;64.34;99494.19;5006858;28;20033;-80
2022/07/10 04:30:57;;;;;;;7.93;1.55;;;;;;;15.32;64.59;99501.38;5023876;28;20090;-80
2022/07/10 04:33:23;;;;;;;6.38;1.83;;;;;;;15.41;64.29;99497.09;5013044;28;20474;-80
2022/07/10 04:35:49;;;;;;;3.00;1.35;;;;;;;15.39;64.65;99520.78;5011360;28;20045;-80
2022/07/10 04:38:14;;;;;;;5.60;1.50;;;;;;;15.37;65.07;99514.84;5026604;28;20033;-80
2022/07/10 04:40:39;;;;;;;2.90;1.05;;;;;;;15.52;64.30;99511.41;5027772;28;20037;-80
2022/07/10 04:43:05;;;;;;;7.32;1.95;;;;;;;15.48;64.13;99504.97;5025501;28;20030;-80
2022/07/10 04:45:30;;;;;;;3.33;1.55;;;;;;;15.51;64.26;99512.47;5023731;28;20041;-81
2022/07/10 04:47:55;;;;;;;7.43;1.40;;;;;;;15.37;65.02;99504.09;5028180;28;20223;-81
2022/07/10 04:50:21;;;;;;;6.53;1.88;;;;;;;15.46;64.82;99517.88;5007985;28;20042;-80
2022/07/10 04:52:46;;;;;;;5.18;1.73;;;;;;;15.23;64.89;99494.06;5029375;28;20044;-80
2022/07/10 04:55:12;;;;;;;6.80;2.22;;;;;;;15.16;65.11;99499.66;5028090;28;20527;-80
2022/07/10 04:57:38;;;;;;;10.48;1.85;;;;;;;15.11;65.36;99496.16;5028939;28;20116;-80
2022/07/10 05:00:04;;;;;;;11.90;2.10;;;;;;;15.30;65.08;99502.69;5011898;28;20469;-80
2022/07/10 05:02:30;;;;;;;6.97;1.65;;;;;;;15.35;65.64;99500.84;5028808;28;20029;-80
2022/07/10 05:04:55;;;;;;;6.20;1.67;;;;;;;15.40;65.11;99503.53;5006039;28;20036;-81
2022/07/10 05:07:20;;;;;;;6.93;1.60;;;;;;;15.51;64.93;99510.59;5028241;28;20026;-80
2022/07/10 05:09:46;;;;;;;4.72;1.50;;;;;;;15.36;64.93;99474.72;5028246;28;20037;-80
2022/07/10 05:12:11;;;;;;;3.72;1.52;;;;;;;15.01;65.95;99494.22;5006314;28;20481;-80
2022/07/10 05:14:36;;;;;;;7.45;1.80;;;;;;;15.09;66.29;99515.25;5026113;28;20037;-80
2022/07/10 05:17:02;;;;;;;4.47;1.92;;;;;;;15.17;66.11;99514.75;5028044;28;20087;-80
2022/07/10 05:19:28;;;;;;;6.57;2.00;;;;;;;15.22;65.75;99506.72;5027002;28;20030;-79
2022/07/10 05:21:53;;;;;;;7.28;2.05;;;;;;;15.34;65.12;99509.16;4995249;28;20395;-80
2022/07/10 05:24:19;;;;;;;10.10;1.65;;;;;;;15.13;66.68;99528.97;4991808;28;20053;-80
2022/07/10 05:26:44;;;;;;;1.55;1.30;;;;;;;15.40;65.21;99514.31;5026647;28;20037;-80
2022/07/10 05:29:10;;;;;;;5.13;2.22;;;;;;;15.46;65.09;99518.69;5027886;28;20029;-80
2022/07/10 05:31:35;;;;;;;8.35;2.50;;;;;;;15.39;65.75;99522.63;5026688;28;20030;-80
2022/07/10 05:34:00;;;;;;;5.90;1.67;;;;;;;15.20;66.51;99516.13;5022557;28;20034;-81
2022/07/10 05:36:26;;;;;;;3.00;1.13;;;;;;;15.07;68.12;99530.81;5027480;28;20052;-80
2022/07/10 05:38:51;;;;;;;8.40;2.08;;;;;;;15.29;67.87;99531.47;5027072;28;20805;-80
2022/07/10 05:41:17;;;;;;;3.85;1.58;;;;;;;15.28;67.71;99537.13;5009264;28;22312;-80
2022/07/10 05:43:42;;;;;;;4.05;1.20;;;;;;;15.28;67.59;99534.44;5012712;28;20128;-80
2022/07/10 05:46:08;;;;;;;5.43;1.27;;;;;;;15.28;67.74;99531.75;5027924;28;20043;-80
2022/07/10 05:48:33;;;;;;;3.05;1.20;;;;;;;15.29;67.35;99523.41;5009927;28;20037;-80
2022/07/10 05:50:59;;;;;;;5.20;1.73;;;;;;;15.27;67.26;99514.78;5029003;28;20116;-80
2022/07/10 05:53:24;;;;;;;4.70;1.73;;;;;;;15.24;67.21;99522.56;5027543;28;20041;-80
2022/07/10 05:55:49;;;;;;;4.15;1.60;;;;;;;15.29;67.62;99528.00;5026511;28;20079;-80
2022/07/10 05:58:16;;;;;;;5.47;1.35;;;;;;;15.50;66.76;99522.47;5010677;28;20030;-80
2022/07/10 06:00:43;;;;;;;7.80;1.80;;;;;;;15.44;67.01;99522.69;5022987;28;20033;-80
2022/07/10 06:03:09;;;;;;;4.57;1.38;;;;;;;15.48;66.91;99526.47;5028730;28;20088;-80
2022/07/10 06:05:35;;;;;;;5.80;1.38;;;;;;;15.58;66.58;99510.34;5005133;28;20033;-80
2022/07/10 06:08:01;;;;;;;9.13;2.17;;;;;;;15.37;67.49;99520.22;5026643;28;20037;-80
2022/07/10 06:10:26;;;;;;;4.65;2.13;;;;;;;15.69;66.90;99512.00;5011314;28;20030;-80
2022/07/10 06:12:52;;;;;;;7.10;1.33;;;;;;;15.78;65.89;99507.72;4993699;28;20026;-80
2022/07/10 06:15:17;;;;;;;6.07;2.00;;;;;;;15.99;65.39;99522.84;5012561;28;20504;-80
2022/07/10 06:17:43;;;;;;;5.13;1.52;;;;;;;15.82;65.51;99511.50;5014834;28;20057;-80
2022/07/10 06:20:09;;;;;;;5.07;1.65;;;;;;;16.20;64.97;99519.13;5027902;28;20034;-80
2022/07/10 06:22:34;;;;;;;3.50;1.48;;;;;;;16.02;64.95;99499.97;5009361;28;20029;-80
2022/07/10 06:25:02;;;;;;;6.95;1.77;;;;;;;16.03;65.18;99523.91;5007936;28;20385;-80
2022/07/10 06:27:28;;;;;;;3.10;1.17;;;;;;;16.20;64.48;99523.69;5033751;28;20033;-80
2022/07/10 06:29:54;;;;;;;5.70;1.88;;;;;;;16.14;64.90;99525.56;5001954;28;20030;-80
2022/07/10 06:32:19;;;;;;;2.05;1.23;;;;;;;15.92;64.98;99527.69;5008672;28;20493;-80
2022/07/10 06:34:45;;;;;;;7.05;1.50;;;;;;;15.82;64.90;99521.44;5026951;28;20025;-80
2022/07/10 06:37:10;;;;;;;3.78;1.60;;;;;;;16.02;64.51;99514.25;5023521;28;20030;-80
2022/07/10 06:39:36;;;;;;;3.97;1.30;;;;;;;16.22;64.13;99521.53;5028297;28;20022;-80
2022/07/10 06:42:05;;;;;;;3.80;1.50;;;;;;;16.03;65.02;99499.69;5032155;28;20029;-80
2022/07/10 06:44:31;;;;;;;3.95;1.42;;;;;;;16.18;64.07;99510.50;5032893;28;20025;-80
2022/07/10 06:49:42;;;;;;;5.10;1.70;;;;;;;16.40;63.19;99529.88;5026171;28;20578;-80
2022/07/10 06:52:08;;;;;;;6.63;1.30;;;;;;;16.30;64.09;99526.38;5029970;28;21726;-80
2022/07/10 06:54:34;;;;;;;6.20;1.80;;;;;;;16.28;63.60;99521.25;5019041;28;20047;-80
2022/07/10 06:57:00;;;;;;;4.88;1.50;;;;;;;16.50;63.04;99526.41;5018002;28;20029;-80
2022/07/10 06:59:25;;;;;;;6.63;1.60;;;;;;;16.60;62.76;99533.69;5027481;28;20030;-80
2022/07/10 07:01:51;;;;;;;4.40;1.38;;;;;;;16.23;63.42;99532.03;5007910;28;20404;-80
2022/07/10 07:04:16;;;;;;;10.60;3.10;;;;;;;16.47;62.47;99525.03;5022853;28;20104;-80
2022/07/10 07:06:42;;;;;;;6.75;1.50;;;;;;;16.42;62.98;99543.88;4990508;28;20986;-80
2022/07/10 07:09:07;;;;;;;5.68;1.48;;;;;;;16.53;62.40;99523.19;5017867;28;20033;-80
2022/07/10 07:11:32;;;;;;;7.28;1.10;;;;;;;16.59;62.08;99527.50;5012566;28;20029;-80
2022/07/10 07:13:58;;;;;;;5.72;1.92;;;;;;;16.53;61.87;99525.06;5026751;28;20038;-80
2022/07/10 07:16:37;;;;;;;3.85;1.50;;;;;;;16.22;62.15;99519.66;5012574;28;20501;-79
2022/07/10 07:19:04;;;;;;;4.85;1.70;;;;;;;16.30;62.14;99513.72;5029765;28;20040;-80
2022/07/10 07:24:14;;;;;;;2.88;1.25;;;;;;;16.49;60.71;99514.78;5030750;28;20136;-80
2022/07/10 07:26:40;;;;;;;2.95;1.45;;;;;;;16.53;60.33;99500.81;5026271;28;20120;-80
2022/07/10 07:29:05;;;;;;;5.55;1.33;;;;;;;16.39;60.33;99514.00;5012279;28;20033;-80
2022/07/10 07:31:30;;;;;;;7.50;1.40;;;;;;;16.55;59.34;99517.53;4993431;28;20477;-80
2022/07/10 07:33:57;;;;;;;8.35;1.67;;;;;;;16.57;60.77;99518.06;5023680;28;20445;-80
2022/07/10 07:36:22;;;;;;;7.50;1.42;;;;;;;16.53;59.83;99495.44;5027897;28;20030;-80
2022/07/10 07:38:48;;;;;;;3.28;1.55;;;;;;;16.61;60.14;99500.25;5030327;28;20033;-79
2022/07/10 07:41:13;;;;;;;4.07;1.60;;;;;;;16.91;59.53;99524.47;5027388;28;20045;-80
2022/07/10 07:43:38;;;;;;;7.32;1.63;;;;;;;16.92;59.06;99509.91;5027089;28;20102;-81
2022/07/10 07:46:04;;;;;;;8.15;1.88;;;;;;;16.97;59.74;99518.00;5028969;28;20330;-80
2022/07/10 07:48:29;;;;;;;2.10;1.23;;;;;;;16.97;59.95;99528.78;5010905;28;20112;-80
2022/07/10 07:50:55;;;;;;;6.50;1.90;;;;;;;16.99;59.77;99521.22;5021704;28;20393;-80
2022/07/10 07:53:20;;;;;;;7.95;1.95;;;;;;;16.90;60.32;99506.69;5012337;28;20543;-81
2022/07/10 07:55:45;;;;;;;2.65;1.00;;;;;;;17.06;59.52;99513.63;4997256;28;20068;-80
2022/07/10 07:58:11;;;;;;;3.40;1.13;;;;;;;17.19;59.33;99504.97;5026886;28;20091;-80
2022/07/10 08:00:37;;;;;;;2.28;1.13;;;;;;;17.41;59.05;99529.72;5009006;28;20094;-80
2022/07/10 08:03:03;;;;;;;4.55;1.30;;;;;;;17.39;59.11;99529.19;5024314;28;20489;-80
2022/07/10 08:05:29;;;;;;;4.32;1.58;;;;;;;17.60;58.25;99527.25;5025911;28;20068;-80
2022/07/10 08:07:56;;;;;;;3.97;1.30;;;;;;;17.60;57.78;99524.56;5024352;28;20026;-80
2022/07/10 08:10:25;;;;;;;2.92;1.15;;;;;;;17.42;57.85;99534.03;5028020;28;20512;-80
2022/07/10 08:12:51;;;;;;;3.25;1.23;;;;;;;17.39;58.20;99531.88;5026842;28;20053;-80
2022/07/10 08:15:18;;;;;;;6.45;1.40;;;;;;;17.24;58.18;99527.34;5014367;28;20186;-81
2022/07/10 08:17:47;;;;;;;5.15;1.65;;;;;;;17.20;58.24;99529.00;5026061;28;20037;-80
2022/07/10 08:20:13;;;;;;;6.88;1.52;;;;;;;16.79;58.55;99537.44;5020903;28;20041;-80
2022/07/10 08:22:39;;;;;;;5.15;2.45;;;;;;;17.18;58.93;99539.25;5028603;28;20049;-80
2022/07/10 08:25:05;;;;;;;4.72;1.30;;;;;;;17.43;57.92;99511.34;5026196;28;20057;-80
2022/07/10 08:27:30;;;;;;;8.43;3.33;;;;;;;17.16;58.14;99519.84;5029707;28;20592;-80
2022/07/10 08:29:56;;;;;;;3.88;1.55;;;;;;;17.58;57.24;99500.50;5027963;28;20037;-80
2022/07/10 08:32:21;;;;;;;3.67;1.10;;;;;;;17.69;57.44;99520.19;5026009;28;20118;-80
2022/07/10 08:34:48;;;;;;;3.17;1.10;;;;;;;17.73;57.08;99511.25;5027008;28;20049;-80
2022/07/10 08:37:13;;;;;;;6.50;1.55;;;;;;;17.68;57.34;99513.97;5026917;28;20037;-81
2022/07/10 08:39:39;;;;;;;4.18;2.22;;;;;;;17.71;57.42;99518.03;5028206;28;20090;-80
2022/07/10 08:42:07;;;;;;;3.25;1.05;;;;;;;17.60;57.16;99508.34;5027467;28;20052;-80
2022/07/10 08:44:33;;;;;;;5.47;1.30;;;;;;;17.80;57.15;99519.84;5020666;28;20068;-80
2022/07/10 08:47:00;;;;;;;3.92;1.40;;;;;;;17.74;57.34;99520.16;5027229;28;20071;-80
2022/07/10 08:49:28;;;;;;;5.85;1.48;;;;;;;17.82;57.06;99527.69;5026790;28;20025;-80
2022/07/10 08:51:53;;;;;;;4.57;1.55;;;;;;;17.93;57.17;99524.63;5020563;28;20440;-80
2022/07/10 08:54:20;;;;;;;4.78;1.30;;;;;;;17.86;56.70;99526.03;5026659;28;20026;-80
2022/07/10 08:56:47;;;;;;;4.65;1.50;;;;;;;17.87;57.18;99511.41;5023957;28;20032;-81
2022/07/10 08:59:14;;;;;;;4.00;1.83;;;;;;;17.95;56.54;99487.31;5022932;28;20122;-80
2022/07/10 09:01:40;;;;;;;6.20;1.55;;;;;;;18.10;56.71;99528.84;5027439;28;20076;-80
2022/07/10 09:04:05;;;;;;;3.90;1.50;;;;;;;18.03;56.71;99506.72;5023669;28;20034;-80
2022/07/10 09:06:30;;;;;;;6.10;1.70;;;;;;;17.88;57.03;99510.34;5016836;28;20107;-81
2022/07/10 09:09:06;;;;;;;4.57;1.42;;;;;;;17.88;57.08;99502.25;5008998;28;20029;-81
2022/07/10 09:11:33;;;;;;;4.38;1.30;;;;;;;17.67;56.79;99511.56;5022382;28;20041;-80
2022/07/10 09:14:04;;;;;;;2.33;1.02;;;;;;;17.83;56.28;99502.28;5028181;28;20029;-81
2022/07/10 09:16:34;;;;;;;2.10;1.65;;;;;;;17.53;56.43;99491.66;5006492;28;20084;-81
2022/07/10 09:19:29;;;;;;;3.33;1.20;;;;;;;17.59;56.26;99504.03;5013250;28;20548;-81
2022/07/10 09:22:11;;;;;;;6.57;1.20;;;;;;;18.01;55.12;99482.72;5008752;28;20072;-80
2022/07/10 09:24:42;;;;;;;3.53;1.17;;;;;;;18.07;55.68;99502.38;5036220;28;20119;-80
2022/07/10 09:27:08;;;;;;;4.43;1.40;;;;;;;18.16;56.13;99506.91;5006530;28;20033;-80
2022/07/10 09:29:58;;;;;;;1.85;0.98;;;;;;;18.16;56.08;99508.81;5018583;28;20026;-80
2022/07/10 09:32:24;;;;;;;2.92;1.30;;;;;;;18.21;55.18;99485.28;5021490;28;20022;-81
2022/07/10 09:37:43;;;;;;;7.28;1.60;;;;;;;18.30;55.97;99488.16;5022185;28;20108;-81
2022/07/10 09:40:09;;;;;;;7.80;1.52;;;;;;;18.53;55.43;99487.44;5027374;28;20405;-81
2022/07/10 09:42:42;;;;;;;2.20;0.73;;;;;;;18.57;54.80;99483.06;5024833;28;20123;-81
2022/07/10 09:45:17;;;;;;;5.30;1.40;;;;;;;18.63;54.83;99500.88;5018733;28;20060;-81
2022/07/10 09:47:52;;;;;;;3.90;1.30;;;;;;;18.52;55.15;99505.56;5021030;28;20038;-81
2022/07/10 09:50:22;;;;;;;4.35;1.77;;;;;;;18.64;55.86;99492.47;5024426;28;20044;-81
2022/07/10 09:52:50;;;;;;;2.63;1.95;;;;;;;18.68;54.55;99493.53;5019886;28;20025;-81
2022/07/10 09:55:17;;;;;;;3.67;1.52;;;;;;;18.51;55.24;99485.03;5023647;28;20064;-81
2022/07/10 09:57:43;;;;;;;3.28;1.70;;;;;;;18.65;54.48;99479.78;4989590;28;20032;-81
2022/07/10 10:00:11;;;;;;;10.52;1.30;;;;;;;18.73;53.89;99472.91;5024267;28;20033;-80
2022/07/10 10:02:38;;;;;;;4.47;1.30;;;;;;;18.68;54.62;99503.53;5026402;28;20489;-81
2022/07/10 10:05:04;;;;;;;8.32;1.70;;;;;;;18.55;54.97;99504.19;5025818;28;20385;-81
2022/07/10 10:07:32;;;;;;;1.48;1.00;;;;;;;18.48;54.92;99501.00;5027756;28;20029;-81
2022/07/10 10:10:01;;;;;;;3.55;1.77;;;;;;;18.38;55.68;99495.66;5024530;28;20095;-81
2022/07/10 10:12:42;;;;;;;4.75;1.30;;;;;;;18.39;55.15;99492.66;5019130;28;20052;-81
2022/07/10 10:15:10;;;;;;;3.17;1.25;;;;;;;18.25;55.24;99463.88;5024008;28;20042;-81
2022/07/10 10:17:36;;;;;;;3.92;1.42;;;;;;;18.72;54.70;99501.06;5024521;28;20037;-81
2022/07/10 10:22:48;;;;;;;6.18;1.50;;;;;;;18.87;53.99;99487.41;5025964;28;20036;-81
2022/07/10 10:25:16;;;;;;;6.68;1.67;;;;;;;18.98;53.63;99478.84;5010689;28;20033;-81
2022/07/10 10:27:43;;;;;;;2.83;1.10;;;;;;;18.99;53.48;99479.69;5022656;28;20044;-81
2022/07/10 10:30:09;;;;;;;2.97;2.33;;;;;;;18.81;54.48;99504.75;5008901;28;20397;-81
2022/07/10 10:32:39;;;;;;;4.45;1.30;;;;;;;18.76;54.92;99494.00;5009905;28;20033;-81
2022/07/10 10:35:09;;;;;;;5.63;1.30;;;;;;;18.46;55.22;99495.88;5027532;28;20112;-81
2022/07/10 10:37:36;;;;;;;2.28;1.15;;;;;;;18.41;55.32;99498.59;5023622;28;20029;-81
2022/07/10 10:40:02;;;;;;;4.40;1.30;;;;;;;18.35;55.22;99491.63;5026429;28;20108;-81
2022/07/10 10:42:43;;;;;;;5.45;1.52;;;;;;;18.54;55.26;99503.38;5023021;28;20030;-81
2022/07/10 10:45:27;;;;;;;7.25;2.03;;;;;;;18.73;54.42;99481.84;5027183;28;20044;-80
2022/07/10 10:48:11;;;;;;;2.13;1.00;;;;;;;18.90;54.40;99503.84;5022241;28;20029;-81
2022/07/10 10:50:49;;;;;;;3.47;1.23;;;;;;;18.90;55.11;99486.81;5034792;28;20094;-81
2022/07/10 10:53:30;;;;;;;2.50;1.55;;;;;;;18.78;54.76;99476.41;5023424;28;20021;-81
2022/07/10 10:56:04;;;;;;;2.45;1.25;;;;;;;19.11;54.34;99504.44;5019427;28;20362;-81
2022/07/10 10:58:44;;;;;;;2.65;0.98;;;;;;;19.09;54.54;99485.00;5021990;28;20079;-81
2022/07/10 11:01:25;;;;;;;4.03;1.10;;;;;;;19.14;54.15;99499.25;5017746;28;20068;-81
2022/07/10 11:04:09;;;;;;;3.33;1.27;;;;;;;19.19;54.16;99501.09;5022753;28;20143;-81
2022/07/10 11:06:46;;;;;;;2.75;0.90;;;;;;;19.17;53.89;99487.06;5025758;28;20456;-81
2022/07/10 11:09:31;;;;;;;2.65;0.73;;;;;;;18.90;54.55;99495.72;5021064;28;20481;-80
2022/07/10 11:12:08;;;;;;;1.85;0.80;;;;;;;19.20;55.24;99487.25;5021975;28;20029;-81
2022/07/10 11:14:47;;;;;;;1.60;0.80;;;;;;;19.27;53.90;99490.44;5010429;28;20095;-81
2022/07/10 11:17:13;;;;;;;1.75;0.85;;;;;;;19.24;53.83;99487.50;5026754;28;20040;-81
2022/07/10 11:19:39;;;;;;;2.25;0.93;;;;;;;19.42;53.16;99465.09;5031559;28;20033;-81
2022/07/10 11:22:35;;;;;;;3.33;1.00;;;;;;;19.92;52.54;99477.16;5008377;28;20510;-81
2022/07/10 11:25:30;;;;;;;3.93;1.50;;;;;;;20.40;51.77;99477.75;5023223;28;20041;-81
2022/07/10 11:28:11;;;;;;;5.13;1.42;;;;;;;20.64;50.97;99473.78;5027341;28;20900;-81
2022/07/10 11:30:54;;;;;;;4.15;1.40;;;;;;;20.72;51.88;99473.09;5025415;28;20432;-81
2022/07/10 11:33:20;;;;;;;4.28;0.88;;;;;;;20.39;52.09;99481.56;5024385;28;20367;-81
2022/07/10 11:35:51;;;;;;;2.60;1.38;;;;;;;20.34;52.50;99495.19;5004650;28;20065;-81
2022/07/10 11:38:21;;;;;;;1.02;0.90;;;;;;;19.98;52.36;99443.44;5024720;28;20033;-81
2022/07/10 11:40:47;;;;;;;6.55;1.10;;;;;;;20.23;52.10;99477.47;5014134;28;20128;-81
2022/07/10 11:43:16;;;;;;;5.45;1.35;;;;;;;20.14;52.40;99470.00;5009647;28;20172;-81
2022/07/10 11:45:52;;;;;;;4.07;1.60;;;;;;;20.08;52.86;99486.63;5026371;28;20029;-81
2022/07/10 11:48:21;;;;;;;3.78;1.40;;;;;;;19.85;52.24;99445.00;5022660;28;20040;-81